Time;durP1;ratioP1;P1;durP2;ratioP2;P2;SDS_P1;SDS_P2;PMS_P1;PMS_P2;Temp;Humidity;BMP_temperature;BMP_pressure;BME280_temperature;BME280_humidity;BME280_pressure;Samples;Min_cycle;Max_cycle;Signal;HPM_P1;HPM_P2
2022/02/22 00:01:40;;;;;;;4.73;1.83;;;;;;;;;;5038589;28;20403;-79
2022/02/22 00:04:07;;;;;;;7.43;1.73;;;;;;;;;;5038202;28;20407;-80
2022/02/22 00:06:33;;;;;;;5.10;2.70;;;;;;;;;;5038287;28;20430;-79
2022/02/22 00:08:59;;;;;;;5.07;1.50;;;;;;;;;;5037826;28;20996;-79
2022/02/22 00:11:26;;;;;;;5.10;1.97;;;;;;;;;;5037800;28;20406;-79
2022/02/22 00:13:52;;;;;;;4.40;1.60;;;;;;;;;;5036609;28;20445;-79
2022/02/22 00:16:18;;;;;;;5.60;1.83;;;;;;;;;;5037410;28;20407;-80
2022/02/22 00:18:44;;;;;;;2.33;1.50;;;;;;;;;;5036814;28;20430;-79
2022/02/22 00:21:14;;;;;;;1.83;1.40;;;;;;;;;;5038207;28;20410;-80
2022/02/22 00:23:40;;;;;;;3.93;1.50;;;;;;;;;;5037985;28;20455;-80
2022/02/22 00:26:06;;;;;;;5.10;1.93;;;;;;;;;;5058779;22;20586;-81
2022/02/22 00:28:33;;;;;;;2.87;1.50;;;;;;;;;;5052241;28;20418;-81
2022/02/22 00:30:59;;;;;;;4.63;1.80;;;;;;;;;;5052602;28;20434;-81
2022/02/22 00:33:28;;;;;;;3.63;1.37;;;;;;;;;;5037175;28;20809;-81
2022/02/22 00:35:54;;;;;;;4.40;1.57;;;;;;;;;;5052651;28;20438;-81
2022/02/22 00:38:21;;;;;;;3.60;1.77;;;;;;;;;;5052914;28;20418;-81
2022/02/22 00:40:47;;;;;;;2.43;1.60;;;;;;;;;;5037100;28;20466;-80
2022/02/22 00:43:15;;;;;;;2.77;1.97;;;;;;;;;;5037452;28;20425;-80
2022/02/22 00:45:41;;;;;;;2.53;1.57;;;;;;;;;;5052288;28;20433;-81
2022/02/22 00:48:07;;;;;;;7.03;1.87;;;;;;;;;;5051876;28;20405;-81
2022/02/22 00:50:34;;;;;;;2.83;1.40;;;;;;;;;;5036508;28;20476;-81
2022/02/22 00:53:00;;;;;;;4.50;1.77;;;;;;;;;;5052182;28;20422;-81
2022/02/22 00:55:26;;;;;;;5.30;1.60;;;;;;;;;;5036577;28;20979;-81
2022/02/22 00:57:53;;;;;;;11.00;1.63;;;;;;;;;;5036867;28;20438;-81
2022/02/22 01:00:20;;;;;;;2.90;1.70;;;;;;;;;;5052517;28;20935;-81
2022/02/22 01:02:47;;;;;;;6.30;2.37;;;;;;;;;;5052142;28;20414;-81
2022/02/22 01:05:14;;;;;;;7.63;1.83;;;;;;;;;;5052238;28;20430;-81
2022/02/22 01:07:40;;;;;;;5.00;1.80;;;;;;;;;;5037441;28;20493;-81
2022/02/22 01:10:06;;;;;;;4.07;1.73;;;;;;;;;;5037222;28;20449;-81
2022/02/22 01:12:32;;;;;;;5.03;2.33;;;;;;;;;;5036880;28;20425;-81
2022/02/22 01:14:58;;;;;;;2.83;1.60;;;;;;;;;;5036869;28;20419;-81
2022/02/22 01:17:25;;;;;;;2.10;1.40;;;;;;;;;;5036821;28;20544;-81
2022/02/22 01:19:51;;;;;;;4.50;2.43;;;;;;;;;;5052006;28;20484;-81
2022/02/22 01:22:17;;;;;;;9.03;2.37;;;;;;;;;;5036261;28;20399;-81
2022/02/22 01:24:43;;;;;;;3.27;2.10;;;;;;;;;;5036130;28;20818;-81
2022/02/22 01:27:09;;;;;;;5.07;1.90;;;;;;;;;;5052284;28;20414;-81
2022/02/22 01:29:35;;;;;;;6.23;1.60;;;;;;;;;;5040786;28;20541;-81
2022/02/22 01:32:01;;;;;;;3.67;1.93;;;;;;;;;;5049131;28;20410;-81
2022/02/22 01:34:27;;;;;;;6.70;2.47;;;;;;;;;;5055516;28;20433;-80
2022/02/22 01:36:54;;;;;;;8.30;2.03;;;;;;;;;;5040636;28;20445;-81
2022/02/22 01:39:20;;;;;;;4.37;2.10;;;;;;;;;;5040974;28;20410;-81
2022/02/22 01:41:46;;;;;;;3.57;2.23;;;;;;;;;;5040597;28;20403;-81
2022/02/22 01:44:13;;;;;;;5.87;1.80;;;;;;;;;;5041203;28;20407;-81
2022/02/22 01:46:39;;;;;;;8.37;2.17;;;;;;;;;;5041088;28;20406;-81
2022/02/22 01:49:05;;;;;;;6.10;1.97;;;;;;;;;;5056050;28;20449;-81
2022/02/22 01:51:31;;;;;;;4.17;2.30;;;;;;;;;;5056044;28;20460;-81
2022/02/22 01:53:57;;;;;;;4.70;1.93;;;;;;;;;;5057131;28;20999;-81
2022/02/22 01:56:24;;;;;;;4.77;1.70;;;;;;;;;;5042797;28;20403;-79
2022/02/22 01:58:51;;;;;;;3.27;2.10;;;;;;;;;;5039703;28;20765;-79
2022/02/22 02:01:17;;;;;;;7.80;2.70;;;;;;;;;;5054021;28;20415;-79
2022/02/22 02:03:45;;;;;;;6.07;2.00;;;;;;;;;;5035738;28;20492;-79
2022/02/22 02:06:11;;;;;;;3.70;2.00;;;;;;;;;;5016196;28;20474;-80
2022/02/22 02:08:37;;;;;;;6.70;1.93;;;;;;;;;;4999968;28;20482;-80
2022/02/22 02:11:09;;;;;;;6.50;2.10;;;;;;;;;;5014149;28;20423;-80
2022/02/22 02:13:35;;;;;;;3.33;1.70;;;;;;;;;;5015345;28;20399;-80
2022/02/22 02:16:01;;;;;;;5.47;1.60;;;;;;;;;;5015342;28;20435;-81
2022/02/22 02:18:27;;;;;;;2.33;1.60;;;;;;;;;;5000409;28;20404;-81
2022/02/22 02:20:53;;;;;;;3.27;1.83;;;;;;;;;;5000465;28;20405;-81
2022/02/22 02:23:19;;;;;;;7.73;2.80;;;;;;;;;;4999413;28;20407;-80
2022/02/22 02:25:47;;;;;;;4.17;2.07;;;;;;;;;;5015654;28;20444;-80
2022/02/22 02:28:13;;;;;;;5.30;2.20;;;;;;;;;;5000532;28;20408;-80
2022/02/22 02:30:39;;;;;;;3.33;2.00;;;;;;;;;;5000271;28;20451;-80
2022/02/22 02:33:05;;;;;;;4.77;1.80;;;;;;;;;;5014710;28;20412;-81
2022/02/22 02:35:32;;;;;;;4.83;1.67;;;;;;;;;;5000074;28;20800;-81
2022/02/22 02:37:58;;;;;;;6.27;2.03;;;;;;;;;;5000705;28;20440;-81
2022/02/22 02:40:24;;;;;;;8.23;2.20;;;;;;;;;;4998562;28;20491;-80
2022/02/22 02:42:51;;;;;;;2.70;1.70;;;;;;;;;;4999819;28;20400;-80
2022/02/22 02:45:17;;;;;;;5.60;1.73;;;;;;;;;;5013988;28;20524;-81
2022/02/22 02:47:43;;;;;;;4.10;2.13;;;;;;;;;;5014684;28;20412;-80
2022/02/22 02:50:10;;;;;;;5.13;1.93;;;;;;;;;;4999333;28;20450;-81
2022/02/22 02:52:36;;;;;;;3.90;1.73;;;;;;;;;;4999015;28;20403;-80
2022/02/22 02:55:02;;;;;;;2.60;1.77;;;;;;;;;;5014134;28;20777;-81
2022/02/22 02:57:30;;;;;;;6.60;1.90;;;;;;;;;;4999346;28;20401;-81
2022/02/22 02:59:56;;;;;;;3.60;1.83;;;;;;;;;;4999344;28;20412;-81
2022/02/22 03:02:23;;;;;;;5.83;2.20;;;;;;;;;;4998728;28;20395;-81
2022/02/22 03:04:49;;;;;;;5.13;1.97;;;;;;;;;;5014721;28;20447;-81
2022/02/22 03:07:15;;;;;;;5.17;1.90;;;;;;;;;;5014175;28;20408;-81
2022/02/22 03:09:41;;;;;;;6.10;2.20;;;;;;;;;;4999054;28;20455;-80
2022/02/22 03:12:07;;;;;;;7.77;1.80;;;;;;;;;;4999011;28;20902;-81
2022/02/22 03:14:33;;;;;;;13.43;2.00;;;;;;;;;;4999241;28;20437;-81
2022/02/22 03:16:59;;;;;;;5.20;2.37;;;;;;;;;;4999392;28;20408;-81
2022/02/22 03:19:25;;;;;;;5.77;2.17;;;;;;;;;;5002493;28;20416;-80
2022/02/22 03:21:51;;;;;;;4.47;1.90;;;;;;;;;;5001652;28;20440;-81
2022/02/22 03:24:17;;;;;;;4.00;1.93;;;;;;;;;;5014554;28;20434;-80
2022/02/22 03:26:43;;;;;;;4.33;2.17;;;;;;;;;;4999715;28;20416;-80
2022/02/22 03:29:09;;;;;;;8.10;2.13;;;;;;;;;;5014224;28;20452;-80
2022/02/22 03:31:35;;;;;;;6.43;2.10;;;;;;;;;;4999729;28;20491;-81
2022/02/22 03:34:01;;;;;;;4.23;2.07;;;;;;;;;;5013459;28;20408;-81
2022/02/22 03:36:28;;;;;;;5.73;2.43;;;;;;;;;;5005762;28;20462;-80
2022/02/22 03:38:54;;;;;;;5.37;2.90;;;;;;;;;;5032569;28;20477;-81
2022/02/22 03:41:21;;;;;;;7.90;2.10;;;;;;;;;;5018885;28;20427;-80
2022/02/22 03:43:47;;;;;;;5.40;2.10;;;;;;;;;;5019660;28;20408;-81
2022/02/22 03:46:13;;;;;;;4.43;1.90;;;;;;;;;;5020226;28;20430;-80
2022/02/22 03:48:39;;;;;;;3.90;1.90;;;;;;;;;;5022550;28;20414;-81
2022/02/22 03:51:06;;;;;;;6.17;2.27;;;;;;;;;;5038405;28;20430;-80
2022/02/22 03:53:32;;;;;;;6.23;2.40;;;;;;;;;;5025103;28;20471;-81
2022/02/22 03:55:58;;;;;;;5.73;2.60;;;;;;;;;;5019975;28;20530;-81
2022/02/22 03:58:24;;;;;;;5.20;1.97;;;;;;;;;;5032866;28;20423;-80
2022/02/22 04:00:50;;;;;;;5.90;2.07;;;;;;;;;;5017913;28;20408;-80
2022/02/22 04:03:16;;;;;;;4.50;2.00;;;;;;;;;;5017349;28;20412;-80
2022/02/22 04:05:46;;;;;;;3.13;1.90;;;;;;;;;;5033056;28;21006;-80
2022/02/22 04:08:12;;;;;;;7.20;2.07;;;;;;;;;;5017531;28;20404;-80
2022/02/22 04:10:39;;;;;;;7.20;2.40;;;;;;;;;;5017472;28;20451;-81
2022/02/22 04:13:05;;;;;;;4.97;2.03;;;;;;;;;;5017559;28;20410;-80
2022/02/22 04:15:31;;;;;;;5.03;1.90;;;;;;;;;;5017040;28;20912;-80
2022/02/22 04:17:58;;;;;;;5.10;1.80;;;;;;;;;;5032800;28;20427;-80
2022/02/22 04:20:24;;;;;;;4.70;1.90;;;;;;;;;;5033001;28;20442;-80
2022/02/22 04:22:50;;;;;;;11.30;2.50;;;;;;;;;;5031185;28;20427;-81
2022/02/22 04:25:16;;;;;;;5.10;2.03;;;;;;;;;;5017367;28;20847;-81
2022/02/22 04:27:42;;;;;;;7.10;2.00;;;;;;;;;;5021250;28;20434;-81
2022/02/22 04:30:08;;;;;;;4.17;1.97;;;;;;;;;;5052484;28;20605;-81
2022/02/22 04:32:34;;;;;;;4.87;2.17;;;;;;;;;;5052277;28;20414;-81
2022/02/22 04:35:00;;;;;;;5.40;1.60;;;;;;;;;;5036982;28;20418;-81
2022/02/22 04:37:27;;;;;;;2.33;1.77;;;;;;;;;;5036899;28;20427;-81
2022/02/22 04:39:58;;;;;;;5.30;1.87;;;;;;;;;;5058668;28;20410;-81
2022/02/22 04:42:24;;;;;;;5.90;1.97;;;;;;;;;;5054856;28;20477;-81
2022/02/22 04:44:50;;;;;;;6.73;2.20;;;;;;;;;;5036610;28;20430;-80
2022/02/22 04:47:16;;;;;;;6.30;1.90;;;;;;;;;;5036971;28;20433;-81
2022/02/22 04:49:42;;;;;;;5.67;1.97;;;;;;;;;;5052701;28;20555;-81
2022/02/22 04:52:09;;;;;;;7.80;2.20;;;;;;;;;;5036719;28;20415;-81
2022/02/22 04:54:36;;;;;;;9.00;2.23;;;;;;;;;;5037224;28;20829;-81
2022/02/22 04:57:02;;;;;;;4.47;1.90;;;;;;;;;;5036433;28;20406;-81
2022/02/22 04:59:28;;;;;;;3.50;1.70;;;;;;;;;;5036892;28;20405;-81
2022/02/22 05:01:54;;;;;;;5.80;2.10;;;;;;;;;;5037209;28;20402;-80
2022/02/22 05:04:20;;;;;;;6.73;2.03;;;;;;;;;;5040311;28;20442;-81
2022/02/22 05:06:46;;;;;;;3.40;1.43;;;;;;;;;;5056595;28;20403;-81
2022/02/22 05:09:12;;;;;;;5.03;2.20;;;;;;;;;;5056331;28;20461;-81
2022/02/22 05:11:39;;;;;;;7.33;1.77;;;;;;;;;;5056223;28;20451;-81
2022/02/22 05:14:05;;;;;;;5.73;1.63;;;;;;;;;;5056556;28;20406;-80
2022/02/22 05:16:32;;;;;;;5.87;2.10;;;;;;;;;;5057038;28;20504;-80
2022/02/22 05:18:59;;;;;;;6.23;2.17;;;;;;;;;;5039430;28;20769;-79
2022/02/22 05:21:25;;;;;;;4.80;1.50;;;;;;;;;;5038266;28;20903;-80
2022/02/22 05:23:51;;;;;;;6.50;2.07;;;;;;;;;;5054679;28;20414;-80
2022/02/22 05:26:17;;;;;;;4.00;1.77;;;;;;;;;;5038733;28;20440;-80
2022/02/22 05:28:45;;;;;;;3.87;1.83;;;;;;;;;;5039731;28;20406;-80
2022/02/22 05:31:16;;;;;;;8.60;2.10;;;;;;;;;;5039175;28;20418;-80
2022/02/22 05:33:42;;;;;;;2.70;1.73;;;;;;;;;;5039344;28;20405;-80
2022/02/22 05:36:08;;;;;;;4.00;2.10;;;;;;;;;;5039663;28;20438;-80
2022/02/22 05:38:35;;;;;;;7.13;2.50;;;;;;;;;;5039778;28;20410;-80
2022/02/22 05:41:01;;;;;;;5.57;2.27;;;;;;;;;;5040879;28;20403;-80
2022/02/22 05:43:27;;;;;;;3.43;1.93;;;;;;;;;;5055403;28;20418;-82
2022/02/22 05:45:54;;;;;;;8.50;2.30;;;;;;;;;;5056144;28;20446;-81
2022/02/22 05:48:20;;;;;;;5.80;2.30;;;;;;;;;;5041073;28;20417;-81
2022/02/22 05:50:46;;;;;;;6.87;1.80;;;;;;;;;;5061534;28;20485;-80
2022/02/22 05:53:13;;;;;;;8.00;2.17;;;;;;;;;;5041297;28;20410;-81
2022/02/22 05:55:39;;;;;;;6.57;2.53;;;;;;;;;;5040227;28;20603;-81
2022/02/22 05:58:05;;;;;;;4.90;2.10;;;;;;;;;;5055710;28;20406;-81
2022/02/22 06:00:31;;;;;;;6.00;2.20;;;;;;;;;;5055243;28;20449;-81
2022/02/22 06:02:57;;;;;;;8.17;2.80;;;;;;;;;;5055387;28;20411;-81
2022/02/22 06:05:23;;;;;;;10.27;2.60;;;;;;;;;;5040509;28;20457;-81
2022/02/22 06:07:49;;;;;;;7.50;2.03;;;;;;;;;;5039600;28;20415;-81
2022/02/22 06:10:16;;;;;;;3.20;2.27;;;;;;;;;;5055303;28;20454;-81
2022/02/22 06:12:45;;;;;;;3.40;1.57;;;;;;;;;;5054662;28;20410;-81
2022/02/22 06:15:11;;;;;;;4.20;1.60;;;;;;;;;;5053704;28;20960;-81
2022/02/22 06:17:38;;;;;;;5.67;2.37;;;;;;;;;;5039228;28;20403;-81
2022/02/22 06:20:04;;;;;;;8.57;2.40;;;;;;;;;;5054870;28;20437;-81
2022/02/22 06:22:33;;;;;;;3.80;1.93;;;;;;;;;;5055854;28;20419;-81
2022/02/22 06:24:59;;;;;;;6.70;2.40;;;;;;;;;;5066767;22;20635;-79
2022/02/22 06:27:25;;;;;;;4.77;1.90;;;;;;;;;;5059059;28;20426;-79
2022/02/22 06:29:52;;;;;;;6.60;2.80;;;;;;;;;;5061755;28;20453;-80
2022/02/22 06:32:18;;;;;;;8.57;2.10;;;;;;;;;;5061386;28;20471;-79
2022/02/22 06:34:44;;;;;;;5.13;2.17;;;;;;;;;;5060753;28;20405;-80
2022/02/22 06:37:10;;;;;;;10.53;2.43;;;;;;;;;;5060531;28;20405;-79
2022/02/22 06:39:37;;;;;;;12.13;2.07;;;;;;;;;;5061536;28;20798;-80
2022/02/22 06:42:03;;;;;;;6.93;2.20;;;;;;;;;;5061687;28;20413;-79
2022/02/22 06:44:29;;;;;;;10.30;1.73;;;;;;;;;;5061088;28;20410;-80
2022/02/22 06:46:55;;;;;;;3.80;2.00;;;;;;;;;;5061144;28;20410;-80
2022/02/22 06:49:21;;;;;;;8.03;3.47;;;;;;;;;;5062169;28;20445;-80
2022/02/22 06:51:47;;;;;;;2.63;1.70;;;;;;;;;;5060784;28;20413;-80
2022/02/22 06:54:13;;;;;;;7.13;2.53;;;;;;;;;;5061518;28;20397;-80
2022/02/22 06:56:39;;;;;;;5.33;2.40;;;;;;;;;;5062140;28;20422;-80
2022/02/22 06:59:05;;;;;;;4.20;2.27;;;;;;;;;;5061423;28;20414;-79
2022/02/22 07:01:31;;;;;;;6.10;2.00;;;;;;;;;;5063855;28;20402;-80
2022/02/22 07:03:57;;;;;;;9.13;2.67;;;;;;;;;;5060052;28;20538;-80
2022/02/22 07:06:23;;;;;;;7.30;2.57;;;;;;;;;;5061078;28;20495;-79
2022/02/22 07:08:49;;;;;;;4.10;2.30;;;;;;;;;;5059678;28;20479;-80
2022/02/22 07:11:15;;;;;;;4.43;2.40;;;;;;;;;;5060746;28;20473;-79
2022/02/22 07:13:42;;;;;;;8.70;3.07;;;;;;;;;;5061686;28;20460;-80
2022/02/22 07:16:08;;;;;;;4.63;1.93;;;;;;;;;;5061100;28;20526;-80
2022/02/22 07:18:34;;;;;;;7.93;1.80;;;;;;;;;;5061736;28;20402;-79
2022/02/22 07:21:00;;;;;;;5.10;2.47;;;;;;;;;;5061100;28;20416;-78
2022/02/22 07:23:26;;;;;;;7.07;2.90;;;;;;;;;;5061062;28;20410;-79
2022/02/22 07:25:52;;;;;;;6.53;2.13;;;;;;;;;;5060457;28;20531;-79
2022/02/22 07:28:19;;;;;;;4.47;2.30;;;;;;;;;;5060814;28;21027;-80
2022/02/22 07:30:45;;;;;;;6.90;2.60;;;;;;;;;;5060990;28;20445;-79
2022/02/22 07:33:11;;;;;;;6.17;2.20;;;;;;;;;;5060422;28;20474;-79
2022/02/22 07:35:37;;;;;;;4.67;2.07;;;;;;;;;;5060556;28;20422;-79
2022/02/22 07:38:03;;;;;;;6.90;2.50;;;;;;;;;;5060424;28;20406;-79
2022/02/22 07:40:29;;;;;;;4.17;2.23;;;;;;;;;;5059597;28;20413;-80
2022/02/22 07:42:56;;;;;;;6.40;2.70;;;;;;;;;;5060353;28;20401;-80
2022/02/22 07:45:22;;;;;;;7.80;1.90;;;;;;;;;;5060495;28;20770;-80
2022/02/22 07:47:48;;;;;;;7.20;3.17;;;;;;;;;;5058442;28;20464;-79
2022/02/22 07:50:14;;;;;;;6.50;3.00;;;;;;;;;;5059552;28;20449;-80
2022/02/22 07:52:41;;;;;;;5.60;2.00;;;;;;;;;;5059432;28;20439;-80
2022/02/22 07:55:07;;;;;;;5.43;2.63;;;;;;;;;;5025783;28;20445;-80
2022/02/22 07:57:33;;;;;;;9.10;2.10;;;;;;;;;;5033683;28;20501;-79
2022/02/22 07:59:59;;;;;;;7.97;3.10;;;;;;;;;;5022039;28;20428;-80
2022/02/22 08:02:25;;;;;;;10.40;2.67;;;;;;;;;;5034751;28;20449;-79
2022/02/22 08:04:52;;;;;;;8.30;2.50;;;;;;;;;;5024966;28;20446;-78
2022/02/22 08:07:20;;;;;;;10.43;2.50;;;;;;;;;;5030557;28;20422;-78
2022/02/22 08:09:47;;;;;;;7.70;3.43;;;;;;;;;;5030706;28;20557;-78
2022/02/22 08:12:14;;;;;;;8.00;2.57;;;;;;;;;;5032954;28;20416;-78
2022/02/22 08:14:40;;;;;;;6.20;2.13;;;;;;;;;;5029173;28;20816;-78
2022/02/22 08:17:06;;;;;;;6.03;2.30;;;;;;;;;;5028832;28;20446;-78
2022/02/22 08:19:32;;;;;;;5.77;2.57;;;;;;;;;;5029566;28;20441;-78
2022/02/22 08:21:58;;;;;;;6.10;2.00;;;;;;;;;;5021199;28;20419;-78
2022/02/22 08:24:25;;;;;;;4.27;2.00;;;;;;;;;;5036487;28;20489;-78
2022/02/22 08:26:53;;;;;;;8.70;2.90;;;;;;;;;;5025268;28;20438;-79
2022/02/22 08:29:19;;;;;;;2.90;1.60;;;;;;;;;;5036418;28;20457;-78
2022/02/22 08:31:45;;;;;;;5.77;2.07;;;;;;;;;;5032312;28;20450;-78
2022/02/22 08:34:11;;;;;;;8.10;2.50;;;;;;;;;;5023678;28;20740;-78
2022/02/22 08:36:37;;;;;;;7.00;2.43;;;;;;;;;;5029999;28;20529;-79
2022/02/22 08:39:03;;;;;;;9.67;2.93;;;;;;;;;;5021585;28;20414;-78
2022/02/22 08:41:29;;;;;;;9.20;1.97;;;;;;;;;;5026444;28;20411;-77
2022/02/22 08:43:57;;;;;;;6.93;2.07;;;;;;;;;;5022277;28;20431;-78
2022/02/22 08:46:23;;;;;;;7.50;2.60;;;;;;;;;;5026734;28;20525;-78
2022/02/22 08:48:50;;;;;;;4.70;2.10;;;;;;;;;;5034617;28;20450;-79
2022/02/22 08:51:16;;;;;;;8.63;2.10;;;;;;;;;;5029475;28;20414;-79
2022/02/22 08:53:43;;;;;;;6.73;2.00;;;;;;;;;;5032044;28;20531;-78
2022/02/22 08:56:09;;;;;;;7.80;3.70;;;;;;;;;;5026312;28;20435;-77
2022/02/22 08:58:36;;;;;;;6.43;2.00;;;;;;;;;;5030536;28;20464;-78
2022/02/22 09:01:02;;;;;;;6.83;2.00;;;;;;;;;;5024706;28;20414;-78
2022/02/22 09:03:28;;;;;;;5.80;2.23;;;;;;;;;;5029263;28;21034;-82
2022/02/22 09:05:55;;;;;;;6.13;1.87;;;;;;;;;;5026077;28;20465;-78
2022/02/22 09:08:21;;;;;;;7.37;3.07;;;;;;;;;;5029601;28;20426;-81
2022/02/22 09:10:49;;;;;;;6.13;1.95;;;;;;;;;;5032946;28;20432;-79
2022/02/22 09:13:15;;;;;;;4.37;1.83;;;;;;;;;;5023709;28;20626;-80
2022/02/22 09:15:42;;;;;;;5.93;2.20;;;;;;;;;;5032099;28;20887;-79
2022/02/22 09:18:08;;;;;;;5.90;1.70;;;;;;;;;;5033980;28;20422;-79
2022/02/22 09:20:34;;;;;;;5.70;2.37;;;;;;;;;;5029080;28;20980;-81
2022/02/22 09:23:00;;;;;;;7.00;2.43;;;;;;;;;;5029990;28;20925;-81
2022/02/22 09:25:32;;;;;;;4.43;2.83;;;;;;;;;;5033492;28;20586;-81
2022/02/22 09:27:59;;;;;;;6.07;2.10;;;;;;;;;;5034046;28;20419;-81
2022/02/22 09:30:25;;;;;;;6.83;2.70;;;;;;;;;;5023041;28;20469;-80
2022/02/22 09:32:51;;;;;;;5.30;2.33;;;;;;;;;;5021958;28;20419;-80
2022/02/22 09:35:19;;;;;;;7.03;2.03;;;;;;;;;;5029921;28;20555;-80
2022/02/22 09:37:45;;;;;;;10.83;4.00;;;;;;;;;;5036645;28;20429;-81
2022/02/22 09:40:12;;;;;;;6.80;2.83;;;;;;;;;;5038359;28;20460;-80
2022/02/22 09:42:38;;;;;;;3.97;2.70;;;;;;;;;;5025558;28;20419;-80
2022/02/22 09:45:08;;;;;;;15.60;2.90;;;;;;;;;;5027892;28;20466;-81
2022/02/22 09:47:34;;;;;;;5.83;2.30;;;;;;;;;;5030020;28;20442;-79
2022/02/22 09:50:01;;;;;;;6.07;2.20;;;;;;;;;;5043453;28;20473;-81
2022/02/22 09:52:27;;;;;;;5.43;2.10;;;;;;;;;;5047524;28;20506;-81
2022/02/22 09:54:53;;;;;;;9.20;2.50;;;;;;;;;;5025832;28;20939;-81
2022/02/22 09:57:19;;;;;;;5.93;2.10;;;;;;;;;;5034323;28;20423;-81
2022/02/22 09:59:45;;;;;;;2.70;1.90;;;;;;;;;;5034302;28;20422;-79
2022/02/22 10:02:11;;;;;;;9.40;2.40;;;;;;;;;;5026940;28;20423;-80
2022/02/22 10:04:44;;;;;;;6.87;3.13;;;;;;;;;;5027851;28;20430;-81
2022/02/22 10:07:10;;;;;;;6.33;2.33;;;;;;;;;;5032571;28;20423;-79
2022/02/22 10:10:02;;;;;;;5.57;2.30;;;;;;;;;;5040361;28;20457;-79
2022/02/22 10:12:32;;;;;;;10.35;2.70;;;;;;;;;;5039524;28;20419;-79
2022/02/22 10:14:59;;;;;;;9.40;2.60;;;;;;;;;;5034380;28;20283;-80
2022/02/22 10:17:26;;;;;;;9.67;2.20;;;;;;;;;;5034730;28;20415;-79
2022/02/22 10:19:58;;;;;;;4.23;2.10;;;;;;;;;;5030556;28;20427;-79
2022/02/22 10:22:26;;;;;;;5.33;3.30;;;;;;;;;;5028577;28;20423;-80
2022/02/22 10:25:01;;;;;;;5.10;1.93;;;;;;;;;;5027298;28;20455;-80
2022/02/22 10:27:27;;;;;;;9.00;2.37;;;;;;;;;;5033364;28;20445;-78
2022/02/22 10:29:55;;;;;;;8.27;2.23;;;;;;;;;;5035903;28;20525;-78
2022/02/22 10:32:25;;;;;;;7.30;1.93;;;;;;;;;;5030980;28;20418;-80
2022/02/22 10:34:52;;;;;;;6.70;2.50;;;;;;;;;;5030889;28;20446;-79
2022/02/22 10:37:18;;;;;;;5.27;2.03;;;;;;;;;;5041423;28;20946;-80
2022/02/22 10:39:44;;;;;;;6.30;2.03;;;;;;;;;;5036194;28;20416;-80
2022/02/22 10:42:10;;;;;;;4.30;2.43;;;;;;;;;;5042053;28;20433;-80
2022/02/22 10:44:36;;;;;;;6.03;2.27;;;;;;;;;;5035399;28;20450;-79
2022/02/22 10:47:07;;;;;;;6.10;2.77;;;;;;;;;;5036642;28;20457;-80
2022/02/22 10:49:34;;;;;;;11.80;2.63;;;;;;;;;;5041821;28;20500;-79
2022/02/22 10:52:07;;;;;;;4.67;2.37;;;;;;;;;;5038250;28;20430;-80
2022/02/22 10:54:33;;;;;;;8.30;2.03;;;;;;;;;;5029408;28;20482;-79
2022/02/22 10:56:59;;;;;;;3.57;1.50;;;;;;;;;;5027553;28;20421;-79
2022/02/22 10:59:26;;;;;;;4.53;2.07;;;;;;;;;;5029152;28;20423;-77
2022/02/22 11:01:53;;;;;;;7.43;2.73;;;;;;;;;;5028524;28;20431;-78
2022/02/22 11:04:19;;;;;;;7.70;2.03;;;;;;;;;;5026534;28;20427;-78
2022/02/22 11:06:45;;;;;;;4.00;2.00;;;;;;;;;;5022448;28;20833;-79
2022/02/22 11:09:17;;;;;;;3.87;1.60;;;;;;;;;;5035895;28;20446;-79
2022/02/22 11:11:57;;;;;;;4.97;2.00;;;;;;;;;;5041327;28;20751;-79
2022/02/22 11:14:34;;;;;;;8.00;1.93;;;;;;;;;;5028751;28;20778;-79
2022/02/22 11:17:02;;;;;;;6.00;2.33;;;;;;;;;;5032070;28;20449;-79
2022/02/22 11:19:39;;;;;;;2.80;1.67;;;;;;;;;;5032855;28;20510;-79
2022/02/22 11:22:09;;;;;;;3.60;1.80;;;;;;;;;;5033964;28;20434;-79
2022/02/22 11:24:45;;;;;;;8.07;2.37;;;;;;;;;;5031239;28;20470;-79
2022/02/22 11:27:11;;;;;;;3.00;1.40;;;;;;;;;;5035666;28;20426;-79
2022/02/22 11:29:37;;;;;;;6.07;1.87;;;;;;;;;;5033384;28;20464;-79
2022/02/22 11:32:08;;;;;;;3.60;2.77;;;;;;;;;;5031339;28;20437;-79
2022/02/22 11:34:39;;;;;;;8.23;2.00;;;;;;;;;;5031358;28;20427;-79
2022/02/22 11:37:17;;;;;;;4.13;2.10;;;;;;;;;;5027911;28;20942;-77
2022/02/22 11:39:51;;;;;;;5.00;1.77;;;;;;;;;;5033124;28;20520;-78
2022/02/22 11:42:19;;;;;;;5.73;2.10;;;;;;;;;;5029291;28;20457;-78
2022/02/22 11:44:45;;;;;;;4.20;2.20;;;;;;;;;;5031796;28;20481;-79
2022/02/22 11:47:17;;;;;;;4.43;1.80;;;;;;;;;;5031987;28;20430;-79
2022/02/22 11:49:53;;;;;;;6.93;1.80;;;;;;;;;;5037394;28;20474;-79
2022/02/22 11:52:19;;;;;;;5.10;2.07;;;;;;;;;;5030984;28;20430;-78
2022/02/22 11:54:46;;;;;;;2.63;1.90;;;;;;;;;;5030270;28;20441;-79
2022/02/22 11:57:15;;;;;;;3.27;1.93;;;;;;;;;;5032774;28;20851;-79
2022/02/22 11:59:45;;;;;;;4.23;1.80;;;;;;;;;;5028855;28;21202;-80
2022/02/22 12:02:11;;;;;;;3.53;1.50;;;;;;;;;;5026141;28;20416;-80
2022/02/22 12:04:43;;;;;;;6.03;1.83;;;;;;;;;;5032056;28;20422;-80
2022/02/22 12:07:09;;;;;;;4.60;1.50;;;;;;;;;;5029036;28;20414;-80
2022/02/22 12:09:37;;;;;;;6.63;2.13;;;;;;;;;;5035763;28;20465;-80
2022/02/22 12:12:08;;;;;;;3.47;1.87;;;;;;;;;;5038330;28;20418;-79
2022/02/22 12:14:35;;;;;;;4.40;1.80;;;;;;;;;;5024598;28;20450;-78
2022/02/22 12:17:04;;;;;;;3.20;1.75;;;;;;;;;;5029231;28;20422;-79
2022/02/22 12:19:30;;;;;;;7.50;2.20;;;;;;;;;;5026593;28;20203;-78
2022/02/22 12:21:57;;;;;;;4.30;2.00;;;;;;;;;;5031911;28;20416;-79
2022/02/22 12:24:24;;;;;;;4.78;1.80;;;;;;;;;;5035814;28;20417;-78
2022/02/22 12:26:50;;;;;;;7.03;2.37;;;;;;;;;;5035536;28;20214;-79
2022/02/22 12:29:17;;;;;;;4.40;1.75;;;;;;;;;;5031554;28;20539;-79
2022/02/22 12:31:44;;;;;;;6.77;2.40;;;;;;;;;;5036339;28;20175;-80
2022/02/22 12:34:14;;;;;;;6.30;1.80;;;;;;;;;;5029442;28;20435;-81
2022/02/22 12:36:47;;;;;;;5.23;2.20;;;;;;;;;;5028965;28;20972;-81
2022/02/22 12:39:15;;;;;;;4.77;1.90;;;;;;;;;;5029308;28;20410;-80
2022/02/22 12:41:44;;;;;;;4.03;1.83;;;;;;;;;;5024432;28;20420;-80
2022/02/22 12:44:11;;;;;;;5.57;2.47;;;;;;;;;;5020284;28;20932;-80
2022/02/22 12:46:38;;;;;;;5.77;1.97;;;;;;;;;;5026478;28;20502;-80
2022/02/22 12:49:05;;;;;;;1.90;1.40;;;;;;;;;;5024974;28;20498;-80
2022/02/22 12:51:32;;;;;;;6.40;1.53;;;;;;;;;;5024836;28;20841;-81
2022/02/22 12:54:00;;;;;;;7.83;1.90;;;;;;;;;;5026976;28;20418;-79
2022/02/22 12:56:31;;;;;;;8.53;2.00;;;;;;;;;;5026688;28;20973;-79
2022/02/22 12:58:57;;;;;;;3.00;2.00;;;;;;;;;;5024384;28;20454;-80
2022/02/22 13:01:23;;;;;;;4.23;1.70;;;;;;;;;;5027449;28;20428;-80
2022/02/22 13:03:50;;;;;;;3.83;2.17;;;;;;;;;;5022814;28;20482;-80
2022/02/22 13:06:17;;;;;;;2.50;1.70;;;;;;;;;;5019354;28;20428;-80
2022/02/22 13:08:45;;;;;;;5.10;1.77;;;;;;;;;;5029855;28;20879;-81
2022/02/22 13:11:11;;;;;;;4.10;1.63;;;;;;;;;;5043407;28;20450;-81
2022/02/22 13:13:38;;;;;;;3.83;1.80;;;;;;;;;;5036917;28;20472;-81
2022/02/22 13:16:11;;;;;;;3.77;1.77;;;;;;;;;;5056809;28;20421;-81
2022/02/22 13:18:37;;;;;;;2.60;1.60;;;;;;;;;;5024824;28;20912;-80
2022/02/22 13:21:13;;;;;;;2.73;1.40;;;;;;;;;;5028991;28;20191;-80
2022/02/22 13:23:39;;;;;;;3.20;1.83;;;;;;;;;;5037670;28;21317;-80
2022/02/22 13:26:05;;;;;;;2.40;1.40;;;;;;;;;;5041091;28;20438;-80
2022/02/22 13:28:35;;;;;;;4.47;1.90;;;;;;;;;;5031910;28;20454;-81
2022/02/22 13:31:12;;;;;;;4.00;1.70;;;;;;;;;;5034178;28;20461;-80
2022/02/22 13:33:39;;;;;;;2.37;1.23;;;;;;;;;;5031014;28;20174;-81
2022/02/22 13:36:15;;;;;;;5.17;1.73;;;;;;;;;;5035761;28;20509;-80
2022/02/22 13:38:48;;;;;;;3.47;1.63;;;;;;;;;;5033611;28;20457;-81
2022/02/22 13:41:17;;;;;;;4.38;1.50;;;;;;;;;;5040361;28;20453;-81
2022/02/22 13:43:45;;;;;;;5.60;2.00;;;;;;;;;;5039169;28;20194;-81
2022/02/22 13:46:12;;;;;;;1.67;0.90;;;;;;;;;;5032767;28;20469;-80
2022/02/22 13:48:38;;;;;;;2.80;1.40;;;;;;;;;;5028396;28;20434;-78
2022/02/22 13:51:05;;;;;;;2.43;1.57;;;;;;;;;;5032903;28;20455;-79
2022/02/22 13:53:31;;;;;;;4.70;1.57;;;;;;;;;;5026070;28;20492;-79
2022/02/22 13:56:01;;;;;;;6.70;1.80;;;;;;;;;;5040565;28;20605;-80
2022/02/22 13:58:29;;;;;;;2.27;1.80;;;;;;;;;;5033942;28;20434;-78
2022/02/22 14:00:59;;;;;;;3.90;1.73;;;;;;;;;;5038604;28;20458;-80
2022/02/22 14:03:26;;;;;;;2.20;1.50;;;;;;;;;;5033605;28;20431;-80
2022/02/22 14:05:52;;;;;;;5.53;2.30;;;;;;;;;;5029928;28;20491;-78
2022/02/22 14:08:18;;;;;;;4.60;1.87;;;;;;;;;;5027627;28;20547;-78
2022/02/22 14:10:46;;;;;;;4.13;1.80;;;;;;;;;;5032648;28;20562;-79
2022/02/22 14:13:13;;;;;;;7.40;2.13;;;;;;;;;;5037085;28;20943;-78
2022/02/22 14:15:43;;;;;;;6.40;3.67;;;;;;;;;;5024050;28;20902;-78
2022/02/22 14:18:09;;;;;;;5.60;2.40;;;;;;;;;;5033804;28;20421;-78
2022/02/22 14:20:36;;;;;;;5.47;2.73;;;;;;;;;;5033975;28;20471;-80
2022/02/22 14:23:03;;;;;;;5.57;2.20;;;;;;;;;;5040289;28;20779;-80
2022/02/22 14:25:32;;;;;;;7.13;2.50;;;;;;;;;;5037797;28;20454;-80
2022/02/22 14:28:02;;;;;;;7.97;2.70;;;;;;;;;;5024413;28;20426;-81
2022/02/22 14:30:30;;;;;;;5.37;2.03;;;;;;;;;;5031857;28;20496;-78
2022/02/22 14:32:57;;;;;;;6.63;2.00;;;;;;;;;;5028926;28;20745;-79
2022/02/22 14:35:23;;;;;;;5.53;2.20;;;;;;;;;;5033283;28;20238;-79
2022/02/22 14:37:49;;;;;;;6.50;2.40;;;;;;;;;;5044981;28;20789;-78
2022/02/22 14:40:15;;;;;;;5.17;2.10;;;;;;;;;;5032613;28;20431;-79
2022/02/22 14:42:45;;;;;;;4.20;2.40;;;;;;;;;;5023070;28;20526;-80